sensor_id;sensor_type;location;lat;lon;timestamp;temperature;humidity
28193;DHT22;15473;50.840;3.396;2022-07-12T00:02:29;17.30;99.90
28193;DHT22;15473;50.840;3.396;2022-07-12T00:05:14;17.30;99.90
28193;DHT22;15473;50.840;3.396;2022-07-12T00:08:00;17.40;99.90
28193;DHT22;15473;50.840;3.396;2022-07-12T00:10:45;17.30;99.90
28193;DHT22;15473;50.840;3.396;2022-07-12T00:13:31;17.30;99.90
28193;DHT22;15473;50.840;3.396;2022-07-12T00:16:17;17.20;99.90
28193;DHT22;15473;50.840;3.396;2022-07-12T00:19:02;17.20;99.90
28193;DHT22;15473;50.840;3.396;2022-07-12T00:21:47;17.20;99.90
28193;DHT22;15473;50.840;3.396;2022-07-12T00:24:33;17.10;99.90
28193;DHT22;15473;50.840;3.396;2022-07-12T00:27:18;17.10;99.90
28193;DHT22;15473;50.840;3.396;2022-07-12T00:30:05;17.00;99.90
28193;DHT22;15473;50.840;3.396;2022-07-12T00:32:51;17.00;99.90
28193;DHT22;15473;50.840;3.396;2022-07-12T00:35:36;17.00;99.90
28193;DHT22;15473;50.840;3.396;2022-07-12T00:38:22;17.00;99.90
28193;DHT22;15473;50.840;3.396;2022-07-12T00:41:08;17.10;99.90
28193;DHT22;15473;50.840;3.396;2022-07-12T00:43:55;17.10;99.90
28193;DHT22;15473;50.840;3.396;2022-07-12T00:46:40;17.00;99.90
28193;DHT22;15473;50.840;3.396;2022-07-12T00:49:26;17.00;99.90
28193;DHT22;15473;50.840;3.396;2022-07-12T00:52:12;17.00;99.90
28193;DHT22;15473;50.840;3.396;2022-07-12T00:54:58;17.00;99.90
28193;DHT22;15473;50.840;3.396;2022-07-12T00:57:43;16.90;99.90
28193;DHT22;15473;50.840;3.396;2022-07-12T01:00:29;16.90;99.90
28193;DHT22;15473;50.840;3.396;2022-07-12T01:03:15;16.90;99.90
28193;DHT22;15473;50.840;3.396;2022-07-12T01:06:01;16.90;99.90
28193;DHT22;15473;50.840;3.396;2022-07-12T01:08:46;16.90;99.90
28193;DHT22;15473;50.840;3.396;2022-07-12T01:11:32;16.80;99.90
28193;DHT22;15473;50.840;3.396;2022-07-12T01:14:17;16.80;99.90
28193;DHT22;15473;50.840;3.396;2022-07-12T01:17:03;16.90;99.90
28193;DHT22;15473;50.840;3.396;2022-07-12T01:19:49;16.90;99.90
28193;DHT22;15473;50.840;3.396;2022-07-12T01:22:35;16.80;99.90
28193;DHT22;15473;50.840;3.396;2022-07-12T01:25:21;16.80;99.90
28193;DHT22;15473;50.840;3.396;2022-07-12T01:28:07;16.90;99.90
28193;DHT22;15473;50.840;3.396;2022-07-12T01:30:52;16.90;99.90
28193;DHT22;15473;50.840;3.396;2022-07-12T01:33:38;16.80;99.90
28193;DHT22;15473;50.840;3.396;2022-07-12T01:36:23;16.80;99.90
28193;DHT22;15473;50.840;3.396;2022-07-12T01:39:09;16.70;99.90
28193;DHT22;15473;50.840;3.396;2022-07-12T01:41:55;16.70;99.90
28193;DHT22;15473;50.840;3.396;2022-07-12T01:44:41;16.70;99.90
28193;DHT22;15473;50.840;3.396;2022-07-12T01:47:28;16.70;99.90
28193;DHT22;15473;50.840;3.396;2022-07-12T01:50:14;16.70;99.90
28193;DHT22;15473;50.840;3.396;2022-07-12T01:53:00;16.60;99.90
28193;DHT22;15473;50.840;3.396;2022-07-12T01:55:45;16.60;99.90
28193;DHT22;15473;50.840;3.396;2022-07-12T01:58:31;16.50;99.90
28193;DHT22;15473;50.840;3.396;2022-07-12T02:01:17;16.50;99.90
28193;DHT22;15473;50.840;3.396;2022-07-12T02:04:05;16.40;99.90
28193;DHT22;15473;50.840;3.396;2022-07-12T02:06:50;16.40;99.90
28193;DHT22;15473;50.840;3.396;2022-07-12T02:09:36;16.30;99.90
28193;DHT22;15473;50.840;3.396;2022-07-12T02:12:21;16.40;99.90
28193;DHT22;15473;50.840;3.396;2022-07-12T02:15:07;16.40;99.90
28193;DHT22;15473;50.840;3.396;2022-07-12T02:17:53;16.30;99.90
28193;DHT22;15473;50.840;3.396;2022-07-12T02:20:38;16.30;99.90
28193;DHT22;15473;50.840;3.396;2022-07-12T02:23:24;16.30;99.90
28193;DHT22;15473;50.840;3.396;2022-07-12T02:26:10;16.30;99.90
28193;DHT22;15473;50.840;3.396;2022-07-12T02:28:55;16.30;99.90
28193;DHT22;15473;50.840;3.396;2022-07-12T02:31:41;16.20;99.90
28193;DHT22;15473;50.840;3.396;2022-07-12T02:34:27;16.20;99.90
28193;DHT22;15473;50.840;3.396;2022-07-12T02:37:12;16.20;99.90
28193;DHT22;15473;50.840;3.396;2022-07-12T02:39:59;16.20;99.90
28193;DHT22;15473;50.840;3.396;2022-07-12T02:43:03;16.20;99.90
28193;DHT22;15473;50.840;3.396;2022-07-12T02:45:49;16.20;99.90
28193;DHT22;15473;50.840;3.396;2022-07-12T02:48:34;16.20;99.90
28193;DHT22;15473;50.840;3.396;2022-07-12T02:51:20;16.20;99.90
28193;DHT22;15473;50.840;3.396;2022-07-12T02:54:05;16.10;99.90
28193;DHT22;15473;50.840;3.396;2022-07-12T02:56:51;16.20;99.90
28193;DHT22;15473;50.840;3.396;2022-07-12T02:59:36;16.20;99.90
28193;DHT22;15473;50.840;3.396;2022-07-12T03:02:22;16.20;99.90
28193;DHT22;15473;50.840;3.396;2022-07-12T03:05:08;16.20;99.90
28193;DHT22;15473;50.840;3.396;2022-07-12T03:07:53;16.20;99.90
28193;DHT22;15473;50.840;3.396;2022-07-12T03:10:39;16.30;99.90
28193;DHT22;15473;50.840;3.396;2022-07-12T03:13:25;16.20;99.90
28193;DHT22;15473;50.840;3.396;2022-07-12T03:16:10;16.20;99.90
28193;DHT22;15473;50.840;3.396;2022-07-12T03:18:56;16.20;99.90
28193;DHT22;15473;50.840;3.396;2022-07-12T03:21:42;16.20;99.90
28193;DHT22;15473;50.840;3.396;2022-07-12T03:24:27;16.20;99.90
28193;DHT22;15473;50.840;3.396;2022-07-12T03:27:13;16.20;99.90
28193;DHT22;15473;50.840;3.396;2022-07-12T03:29:59;16.20;99.90
28193;DHT22;15473;50.840;3.396;2022-07-12T03:32:45;16.30;99.90
28193;DHT22;15473;50.840;3.396;2022-07-12T03:35:30;16.30;99.90
28193;DHT22;15473;50.840;3.396;2022-07-12T03:38:16;16.20;99.90
28193;DHT22;15473;50.840;3.396;2022-07-12T03:41:02;16.10;99.90
28193;DHT22;15473;50.840;3.396;2022-07-12T03:43:48;16.10;99.90
28193;DHT22;15473;50.840;3.396;2022-07-12T03:49:40;16.10;99.90
28193;DHT22;15473;50.840;3.396;2022-07-12T03:52:25;16.00;99.90
28193;DHT22;15473;50.840;3.396;2022-07-12T03:55:11;15.90;99.90
28193;DHT22;15473;50.840;3.396;2022-07-12T03:58:02;15.90;99.90
28193;DHT22;15473;50.840;3.396;2022-07-12T04:00:48;15.90;99.90
28193;DHT22;15473;50.840;3.396;2022-07-12T04:03:34;15.90;99.90
28193;DHT22;15473;50.840;3.396;2022-07-12T04:06:21;16.00;99.90
28193;DHT22;15473;50.840;3.396;2022-07-12T04:09:07;16.10;99.90
28193;DHT22;15473;50.840;3.396;2022-07-12T04:11:52;16.20;99.90
28193;DHT22;15473;50.840;3.396;2022-07-12T04:14:38;16.30;99.90
28193;DHT22;15473;50.840;3.396;2022-07-12T04:17:24;16.20;99.90
28193;DHT22;15473;50.840;3.396;2022-07-12T04:20:09;16.30;99.90
28193;DHT22;15473;50.840;3.396;2022-07-12T04:22:55;16.40;99.90
28193;DHT22;15473;50.840;3.396;2022-07-12T04:25:41;16.40;99.90
28193;DHT22;15473;50.840;3.396;2022-07-12T04:28:27;16.60;99.90
28193;DHT22;15473;50.840;3.396;2022-07-12T04:31:13;16.40;99.90
28193;DHT22;15473;50.840;3.396;2022-07-12T04:33:59;16.60;99.90
28193;DHT22;15473;50.840;3.396;2022-07-12T04:36:44;16.60;99.90
28193;DHT22;15473;50.840;3.396;2022-07-12T04:42:35;16.70;99.90
28193;DHT22;15473;50.840;3.396;2022-07-12T04:45:20;16.80;99.90
28193;DHT22;15473;50.840;3.396;2022-07-12T04:48:06;16.90;99.90
28193;DHT22;15473;50.840;3.396;2022-07-12T04:50:52;17.00;99.90
28193;DHT22;15473;50.840;3.396;2022-07-12T04:53:37;17.10;99.90
28193;DHT22;15473;50.840;3.396;2022-07-12T04:56:23;17.20;99.90
28193;DHT22;15473;50.840;3.396;2022-07-12T04:59:09;17.20;99.90
28193;DHT22;15473;50.840;3.396;2022-07-12T05:01:54;17.30;99.90
28193;DHT22;15473;50.840;3.396;2022-07-12T05:04:40;17.40;99.90
28193;DHT22;15473;50.840;3.396;2022-07-12T05:07:27;17.50;99.90
28193;DHT22;15473;50.840;3.396;2022-07-12T05:10:13;17.60;99.90
28193;DHT22;15473;50.840;3.396;2022-07-12T05:12:59;17.70;99.90
28193;DHT22;15473;50.840;3.396;2022-07-12T05:15:45;17.70;99.90
28193;DHT22;15473;50.840;3.396;2022-07-12T05:18:31;17.80;99.90
28193;DHT22;15473;50.840;3.396;2022-07-12T05:21:17;17.90;99.90
28193;DHT22;15473;50.840;3.396;2022-07-12T05:24:03;17.90;99.90
28193;DHT22;15473;50.840;3.396;2022-07-12T05:26:48;18.00;99.90
28193;DHT22;15473;50.840;3.396;2022-07-12T05:29:34;18.00;99.90
28193;DHT22;15473;50.840;3.396;2022-07-12T05:32:20;18.00;99.90
28193;DHT22;15473;50.840;3.396;2022-07-12T05:35:06;18.00;99.90
28193;DHT22;15473;50.840;3.396;2022-07-12T05:37:52;18.10;99.90
28193;DHT22;15473;50.840;3.396;2022-07-12T05:40:38;18.20;99.90
28193;DHT22;15473;50.840;3.396;2022-07-12T05:43:23;18.30;99.90
28193;DHT22;15473;50.840;3.396;2022-07-12T05:46:09;18.40;99.90
28193;DHT22;15473;50.840;3.396;2022-07-12T05:48:55;18.60;99.90
28193;DHT22;15473;50.840;3.396;2022-07-12T05:51:41;18.80;99.90
28193;DHT22;15473;50.840;3.396;2022-07-12T05:54:45;19.20;99.90
28193;DHT22;15473;50.840;3.396;2022-07-12T05:57:31;19.70;99.90
28193;DHT22;15473;50.840;3.396;2022-07-12T06:00:17;20.20;99.90
28193;DHT22;15473;50.840;3.396;2022-07-12T06:03:02;20.60;99.90
28193;DHT22;15473;50.840;3.396;2022-07-12T06:05:48;21.00;99.90
28193;DHT22;15473;50.840;3.396;2022-07-12T06:08:33;21.60;99.90
28193;DHT22;15473;50.840;3.396;2022-07-12T06:11:19;22.20;99.90
28193;DHT22;15473;50.840;3.396;2022-07-12T06:14:05;22.80;99.90
28193;DHT22;15473;50.840;3.396;2022-07-12T06:16:51;23.40;99.90
28193;DHT22;15473;50.840;3.396;2022-07-12T06:19:37;23.80;99.90
28193;DHT22;15473;50.840;3.396;2022-07-12T06:22:23;24.10;99.90
28193;DHT22;15473;50.840;3.396;2022-07-12T06:25:08;24.40;99.90
28193;DHT22;15473;50.840;3.396;2022-07-12T06:27:54;24.90;99.90
28193;DHT22;15473;50.840;3.396;2022-07-12T06:30:40;25.20;99.90
28193;DHT22;15473;50.840;3.396;2022-07-12T06:33:26;25.40;99.90
28193;DHT22;15473;50.840;3.396;2022-07-12T06:36:11;25.50;99.90
28193;DHT22;15473;50.840;3.396;2022-07-12T06:38:57;25.60;99.90
28193;DHT22;15473;50.840;3.396;2022-07-12T06:41:43;26.40;99.90
28193;DHT22;15473;50.840;3.396;2022-07-12T06:44:33;26.80;99.90
28193;DHT22;15473;50.840;3.396;2022-07-12T06:47:16;27.10;99.90
28193;DHT22;15473;50.840;3.396;2022-07-12T06:50:02;27.00;99.90
28193;DHT22;15473;50.840;3.396;2022-07-12T06:52:48;26.40;99.90
28193;DHT22;15473;50.840;3.396;2022-07-12T06:55:34;25.80;99.90
28193;DHT22;15473;50.840;3.396;2022-07-12T06:58:19;25.80;99.90
28193;DHT22;15473;50.840;3.396;2022-07-12T07:01:05;25.60;99.90
28193;DHT22;15473;50.840;3.396;2022-07-12T07:03:50;25.60;99.90
28193;DHT22;15473;50.840;3.396;2022-07-12T07:06:36;25.80;99.90
28193;DHT22;15473;50.840;3.396;2022-07-12T07:09:22;26.10;99.90
28193;DHT22;15473;50.840;3.396;2022-07-12T07:12:07;26.30;99.90
28193;DHT22;15473;50.840;3.396;2022-07-12T07:14:53;27.20;99.90
28193;DHT22;15473;50.840;3.396;2022-07-12T07:17:38;27.70;99.90
28193;DHT22;15473;50.840;3.396;2022-07-12T07:20:24;28.90;99.90
28193;DHT22;15473;50.840;3.396;2022-07-12T07:23:10;32.90;99.90
28193;DHT22;15473;50.840;3.396;2022-07-12T07:25:57;35.30;98.00
28193;DHT22;15473;50.840;3.396;2022-07-12T07:28:43;34.00;96.80
28193;DHT22;15473;50.840;3.396;2022-07-12T07:31:47;33.20;97.30
28193;DHT22;15473;50.840;3.396;2022-07-12T07:34:33;32.90;97.30
28193;DHT22;15473;50.840;3.396;2022-07-12T07:37:18;33.00;97.50
28193;DHT22;15473;50.840;3.396;2022-07-12T07:40:04;34.80;95.90
28193;DHT22;15473;50.840;3.396;2022-07-12T07:42:50;36.60;94.00
28193;DHT22;15473;50.840;3.396;2022-07-12T07:45:36;37.80;92.20
28193;DHT22;15473;50.840;3.396;2022-07-12T07:48:22;38.90;91.00
28193;DHT22;15473;50.840;3.396;2022-07-12T07:51:08;39.30;90.20
28193;DHT22;15473;50.840;3.396;2022-07-12T07:53:54;39.80;86.80
28193;DHT22;15473;50.840;3.396;2022-07-12T07:56:40;40.30;84.40
28193;DHT22;15473;50.840;3.396;2022-07-12T07:59:26;40.00;85.50
28193;DHT22;15473;50.840;3.396;2022-07-12T08:02:12;39.40;85.30
28193;DHT22;15473;50.840;3.396;2022-07-12T08:04:57;37.30;87.80
28193;DHT22;15473;50.840;3.396;2022-07-12T08:07:43;34.60;91.50
28193;DHT22;15473;50.840;3.396;2022-07-12T08:10:29;32.10;94.10
28193;DHT22;15473;50.840;3.396;2022-07-12T08:13:15;30.80;95.90
28193;DHT22;15473;50.840;3.396;2022-07-12T08:16:01;29.80;97.40
28193;DHT22;15473;50.840;3.396;2022-07-12T08:18:46;28.90;97.30
28193;DHT22;15473;50.840;3.396;2022-07-12T08:21:32;28.50;97.80
28193;DHT22;15473;50.840;3.396;2022-07-12T08:24:18;28.00;97.90
28193;DHT22;15473;50.840;3.396;2022-07-12T08:27:04;27.70;98.70
28193;DHT22;15473;50.840;3.396;2022-07-12T08:29:49;27.60;99.50
28193;DHT22;15473;50.840;3.396;2022-07-12T08:32:35;27.60;99.90
28193;DHT22;15473;50.840;3.396;2022-07-12T08:35:20;27.70;99.90
28193;DHT22;15473;50.840;3.396;2022-07-12T08:38:06;27.50;99.90
28193;DHT22;15473;50.840;3.396;2022-07-12T08:40:51;27.30;99.90
28193;DHT22;15473;50.840;3.396;2022-07-12T08:43:37;27.20;99.90
28193;DHT22;15473;50.840;3.396;2022-07-12T08:49:30;26.90;99.90
28193;DHT22;15473;50.840;3.396;2022-07-12T08:52:34;26.60;99.90
28193;DHT22;15473;50.840;3.396;2022-07-12T08:55:26;26.40;99.90
28193;DHT22;15473;50.840;3.396;2022-07-12T08:57:57;26.10;99.90
28193;DHT22;15473;50.840;3.396;2022-07-12T09:00:43;26.00;99.90
28193;DHT22;15473;50.840;3.396;2022-07-12T09:03:29;26.00;99.90
28193;DHT22;15473;50.840;3.396;2022-07-12T09:06:15;25.80;99.90
28193;DHT22;15473;50.840;3.396;2022-07-12T09:09:01;25.70;99.90
28193;DHT22;15473;50.840;3.396;2022-07-12T09:11:46;25.60;99.90
28193;DHT22;15473;50.840;3.396;2022-07-12T09:14:32;25.50;99.90
28193;DHT22;15473;50.840;3.396;2022-07-12T09:17:21;25.40;99.90
28193;DHT22;15473;50.840;3.396;2022-07-12T09:20:05;25.40;99.90
28193;DHT22;15473;50.840;3.396;2022-07-12T09:22:53;25.50;99.90
28193;DHT22;15473;50.840;3.396;2022-07-12T09:25:41;25.50;99.90
28193;DHT22;15473;50.840;3.396;2022-07-12T09:28:26;25.50;99.90
28193;DHT22;15473;50.840;3.396;2022-07-12T09:31:12;25.60;99.90
28193;DHT22;15473;50.840;3.396;2022-07-12T09:34:01;25.60;99.90
28193;DHT22;15473;50.840;3.396;2022-07-12T09:37:05;25.70;99.90
28193;DHT22;15473;50.840;3.396;2022-07-12T09:39:51;25.60;99.90
28193;DHT22;15473;50.840;3.396;2022-07-12T09:42:39;25.60;99.90
28193;DHT22;15473;50.840;3.396;2022-07-12T09:45:24;25.60;99.90
28193;DHT22;15473;50.840;3.396;2022-07-12T09:48:11;25.70;99.90
28193;DHT22;15473;50.840;3.396;2022-07-12T09:50:57;25.80;99.90
28193;DHT22;15473;50.840;3.396;2022-07-12T09:53:44;25.90;99.90
28193;DHT22;15473;50.840;3.396;2022-07-12T09:56:30;25.90;99.90
28193;DHT22;15473;50.840;3.396;2022-07-12T09:59:17;25.90;99.90
28193;DHT22;15473;50.840;3.396;2022-07-12T10:02:04;25.80;98.00
28193;DHT22;15473;50.840;3.396;2022-07-12T10:04:51;25.80;97.10
28193;DHT22;15473;50.840;3.396;2022-07-12T10:07:37;25.80;96.90
28193;DHT22;15473;50.840;3.396;2022-07-12T10:10:24;25.90;95.90
28193;DHT22;15473;50.840;3.396;2022-07-12T10:13:10;25.90;97.90
28193;DHT22;15473;50.840;3.396;2022-07-12T10:15:57;26.00;99.10
28193;DHT22;15473;50.840;3.396;2022-07-12T10:18:42;26.10;99.10
28193;DHT22;15473;50.840;3.396;2022-07-12T10:21:28;26.10;99.50
28193;DHT22;15473;50.840;3.396;2022-07-12T10:30:26;26.10;98.30
28193;DHT22;15473;50.840;3.396;2022-07-12T10:33:15;26.10;96.90
28193;DHT22;15473;50.840;3.396;2022-07-12T10:36:05;26.20;97.10
28193;DHT22;15473;50.840;3.396;2022-07-12T10:39:11;26.30;98.40
28193;DHT22;15473;50.840;3.396;2022-07-12T10:44:51;26.40;98.00
28193;DHT22;15473;50.840;3.396;2022-07-12T10:47:57;26.40;98.40
28193;DHT22;15473;50.840;3.396;2022-07-12T10:53:30;26.50;98.40
28193;DHT22;15473;50.840;3.396;2022-07-12T10:56:21;26.60;98.50
28193;DHT22;15473;50.840;3.396;2022-07-12T10:59:09;26.80;97.70
28193;DHT22;15473;50.840;3.396;2022-07-12T11:01:55;26.90;96.80
28193;DHT22;15473;50.840;3.396;2022-07-12T11:04:46;27.00;96.60
28193;DHT22;15473;50.840;3.396;2022-07-12T11:07:32;27.20;92.70
28193;DHT22;15473;50.840;3.396;2022-07-12T11:10:18;27.30;95.90
28193;DHT22;15473;50.840;3.396;2022-07-12T11:13:27;27.40;94.90
28193;DHT22;15473;50.840;3.396;2022-07-12T11:15:58;27.50;96.50
28193;DHT22;15473;50.840;3.396;2022-07-12T11:18:44;27.40;96.40
28193;DHT22;15473;50.840;3.396;2022-07-12T11:21:29;27.40;96.30
28193;DHT22;15473;50.840;3.396;2022-07-12T11:24:16;27.50;96.60
28193;DHT22;15473;50.840;3.396;2022-07-12T11:27:03;27.50;95.60
28193;DHT22;15473;50.840;3.396;2022-07-12T11:30:01;27.60;96.30
28193;DHT22;15473;50.840;3.396;2022-07-12T11:32:43;27.70;96.60
28193;DHT22;15473;50.840;3.396;2022-07-12T11:35:28;27.70;96.50
28193;DHT22;15473;50.840;3.396;2022-07-12T11:38:14;27.70;95.20
28193;DHT22;15473;50.840;3.396;2022-07-12T11:41:02;27.80;95.50
28193;DHT22;15473;50.840;3.396;2022-07-12T11:43:48;27.80;96.20
28193;DHT22;15473;50.840;3.396;2022-07-12T11:46:34;27.90;95.50
28193;DHT22;15473;50.840;3.396;2022-07-12T11:49:19;27.90;96.00
28193;DHT22;15473;50.840;3.396;2022-07-12T11:52:05;28.00;95.80
28193;DHT22;15473;50.840;3.396;2022-07-12T11:54:51;27.90;93.00
28193;DHT22;15473;50.840;3.396;2022-07-12T11:57:37;27.80;91.90
28193;DHT22;15473;50.840;3.396;2022-07-12T12:00:23;27.70;95.10
28193;DHT22;15473;50.840;3.396;2022-07-12T12:03:10;27.50;94.40
28193;DHT22;15473;50.840;3.396;2022-07-12T12:05:56;27.50;95.40
28193;DHT22;15473;50.840;3.396;2022-07-12T12:08:42;27.50;95.00
28193;DHT22;15473;50.840;3.396;2022-07-12T12:11:30;27.50;95.60
28193;DHT22;15473;50.840;3.396;2022-07-12T12:14:15;27.50;95.30
28193;DHT22;15473;50.840;3.396;2022-07-12T12:17:01;27.50;93.00
28193;DHT22;15473;50.840;3.396;2022-07-12T12:19:48;27.60;93.80
28193;DHT22;15473;50.840;3.396;2022-07-12T12:22:34;27.80;94.30
28193;DHT22;15473;50.840;3.396;2022-07-12T12:25:19;27.90;94.80
28193;DHT22;15473;50.840;3.396;2022-07-12T12:28:07;28.00;94.50
28193;DHT22;15473;50.840;3.396;2022-07-12T12:30:53;28.20;94.60
28193;DHT22;15473;50.840;3.396;2022-07-12T12:33:43;28.30;94.50
28193;DHT22;15473;50.840;3.396;2022-07-12T12:36:26;28.20;93.00
28193;DHT22;15473;50.840;3.396;2022-07-12T12:39:12;28.20;93.60
28193;DHT22;15473;50.840;3.396;2022-07-12T12:45:03;28.00;93.20
28193;DHT22;15473;50.840;3.396;2022-07-12T12:47:52;27.90;92.90
28193;DHT22;15473;50.840;3.396;2022-07-12T12:50:38;27.80;92.00
28193;DHT22;15473;50.840;3.396;2022-07-12T12:53:25;27.80;92.90
28193;DHT22;15473;50.840;3.396;2022-07-12T12:56:14;27.70;93.50
28193;DHT22;15473;50.840;3.396;2022-07-12T12:58:59;27.70;91.70
28193;DHT22;15473;50.840;3.396;2022-07-12T13:01:45;27.70;93.50
28193;DHT22;15473;50.840;3.396;2022-07-12T13:04:32;27.70;93.20
28193;DHT22;15473;50.840;3.396;2022-07-12T13:07:18;27.80;91.80
28193;DHT22;15473;50.840;3.396;2022-07-12T13:10:04;27.90;91.40
28193;DHT22;15473;50.840;3.396;2022-07-12T13:12:50;28.00;93.30
28193;DHT22;15473;50.840;3.396;2022-07-12T13:15:36;28.00;93.80
28193;DHT22;15473;50.840;3.396;2022-07-12T13:18:22;28.00;89.10
28193;DHT22;15473;50.840;3.396;2022-07-12T13:21:08;28.00;93.60
28193;DHT22;15473;50.840;3.396;2022-07-12T13:23:54;27.90;93.30
28193;DHT22;15473;50.840;3.396;2022-07-12T13:26:39;27.80;93.10
28193;DHT22;15473;50.840;3.396;2022-07-12T13:29:25;27.80;91.50
28193;DHT22;15473;50.840;3.396;2022-07-12T13:32:10;27.80;93.30
28193;DHT22;15473;50.840;3.396;2022-07-12T13:34:58;27.60;85.30
28193;DHT22;15473;50.840;3.396;2022-07-12T13:37:44;27.70;92.50
28193;DHT22;15473;50.840;3.396;2022-07-12T13:40:30;27.60;90.30
28193;DHT22;15473;50.840;3.396;2022-07-12T13:43:16;27.70;90.10
28193;DHT22;15473;50.840;3.396;2022-07-12T13:46:02;27.80;92.10
28193;DHT22;15473;50.840;3.396;2022-07-12T13:48:47;27.80;91.00
28193;DHT22;15473;50.840;3.396;2022-07-12T13:51:33;27.80;92.80
28193;DHT22;15473;50.840;3.396;2022-07-12T13:54:19;27.70;92.40
28193;DHT22;15473;50.840;3.396;2022-07-12T13:57:06;27.70;93.40
28193;DHT22;15473;50.840;3.396;2022-07-12T13:59:52;27.80;91.20
28193;DHT22;15473;50.840;3.396;2022-07-12T14:02:39;27.80;92.40
28193;DHT22;15473;50.840;3.396;2022-07-12T14:05:25;27.90;91.50
28193;DHT22;15473;50.840;3.396;2022-07-12T14:08:11;28.00;92.70
28193;DHT22;15473;50.840;3.396;2022-07-12T14:10:57;28.20;92.90
28193;DHT22;15473;50.840;3.396;2022-07-12T14:13:42;28.20;92.50
28193;DHT22;15473;50.840;3.396;2022-07-12T14:16:28;28.40;92.10
28193;DHT22;15473;50.840;3.396;2022-07-12T14:19:15;28.60;92.80
28193;DHT22;15473;50.840;3.396;2022-07-12T14:22:00;28.80;92.80
28193;DHT22;15473;50.840;3.396;2022-07-12T14:24:46;28.90;92.80
28193;DHT22;15473;50.840;3.396;2022-07-12T14:27:32;28.90;92.90
28193;DHT22;15473;50.840;3.396;2022-07-12T14:30:17;29.00;91.60
28193;DHT22;15473;50.840;3.396;2022-07-12T14:33:03;29.10;92.10
28193;DHT22;15473;50.840;3.396;2022-07-12T14:35:49;29.10;92.10
28193;DHT22;15473;50.840;3.396;2022-07-12T14:38:35;29.20;89.70
28193;DHT22;15473;50.840;3.396;2022-07-12T14:41:27;29.40;90.70
28193;DHT22;15473;50.840;3.396;2022-07-12T14:44:12;29.50;90.10
28193;DHT22;15473;50.840;3.396;2022-07-12T14:46:58;29.60;87.90
28193;DHT22;15473;50.840;3.396;2022-07-12T14:49:44;29.70;89.60
28193;DHT22;15473;50.840;3.396;2022-07-12T14:52:29;29.70;91.50
28193;DHT22;15473;50.840;3.396;2022-07-12T14:55:14;29.80;88.10
28193;DHT22;15473;50.840;3.396;2022-07-12T14:58:00;29.80;88.20
28193;DHT22;15473;50.840;3.396;2022-07-12T15:00:46;29.80;90.30
28193;DHT22;15473;50.840;3.396;2022-07-12T15:03:32;29.70;90.60
28193;DHT22;15473;50.840;3.396;2022-07-12T15:06:19;29.70;90.60
28193;DHT22;15473;50.840;3.396;2022-07-12T15:09:05;29.60;90.10
28193;DHT22;15473;50.840;3.396;2022-07-12T15:11:50;29.50;89.20
28193;DHT22;15473;50.840;3.396;2022-07-12T15:14:36;29.60;89.00
28193;DHT22;15473;50.840;3.396;2022-07-12T15:17:21;29.60;90.40
28193;DHT22;15473;50.840;3.396;2022-07-12T15:20:07;29.70;85.70
28193;DHT22;15473;50.840;3.396;2022-07-12T15:22:53;29.80;88.40
28193;DHT22;15473;50.840;3.396;2022-07-12T15:25:39;29.80;89.30
28193;DHT22;15473;50.840;3.396;2022-07-12T15:28:25;29.80;90.40
28193;DHT22;15473;50.840;3.396;2022-07-12T15:31:10;29.60;90.70
28193;DHT22;15473;50.840;3.396;2022-07-12T15:33:56;29.40;90.90
28193;DHT22;15473;50.840;3.396;2022-07-12T15:36:43;29.30;90.10
28193;DHT22;15473;50.840;3.396;2022-07-12T15:39:29;29.20;91.30
28193;DHT22;15473;50.840;3.396;2022-07-12T15:42:14;29.20;91.70
28193;DHT22;15473;50.840;3.396;2022-07-12T15:45:00;29.20;90.40
28193;DHT22;15473;50.840;3.396;2022-07-12T15:47:46;29.30;91.10
28193;DHT22;15473;50.840;3.396;2022-07-12T15:50:36;29.30;90.70
28193;DHT22;15473;50.840;3.396;2022-07-12T15:53:22;29.20;91.10
28193;DHT22;15473;50.840;3.396;2022-07-12T15:56:14;28.90;91.70
28193;DHT22;15473;50.840;3.396;2022-07-12T15:58:59;28.70;91.60
28193;DHT22;15473;50.840;3.396;2022-07-12T16:01:46;28.40;92.00
28193;DHT22;15473;50.840;3.396;2022-07-12T16:04:32;28.30;91.40
28193;DHT22;15473;50.840;3.396;2022-07-12T16:07:19;28.30;91.50
28193;DHT22;15473;50.840;3.396;2022-07-12T16:10:04;28.30;92.50
28193;DHT22;15473;50.840;3.396;2022-07-12T16:12:52;28.40;92.40
28193;DHT22;15473;50.840;3.396;2022-07-12T16:15:38;28.50;91.60
28193;DHT22;15473;50.840;3.396;2022-07-12T16:18:23;28.50;91.70
28193;DHT22;15473;50.840;3.396;2022-07-12T16:21:09;28.40;91.80
28193;DHT22;15473;50.840;3.396;2022-07-12T16:23:55;28.30;90.30
28193;DHT22;15473;50.840;3.396;2022-07-12T16:26:40;28.20;89.60
28193;DHT22;15473;50.840;3.396;2022-07-12T16:29:26;28.10;91.90
28193;DHT22;15473;50.840;3.396;2022-07-12T16:32:12;28.00;92.70
28193;DHT22;15473;50.840;3.396;2022-07-12T16:34:58;27.90;93.10
28193;DHT22;15473;50.840;3.396;2022-07-12T16:37:44;27.70;93.00
28193;DHT22;15473;50.840;3.396;2022-07-12T16:40:31;27.60;93.30
28193;DHT22;15473;50.840;3.396;2022-07-12T16:43:16;27.40;92.90
28193;DHT22;15473;50.840;3.396;2022-07-12T16:46:02;27.40;93.30
28193;DHT22;15473;50.840;3.396;2022-07-12T16:48:47;27.40;93.40
28193;DHT22;15473;50.840;3.396;2022-07-12T16:51:33;27.40;92.30
28193;DHT22;15473;50.840;3.396;2022-07-12T16:54:20;27.50;93.40
28193;DHT22;15473;50.840;3.396;2022-07-12T16:57:07;27.60;93.00
28193;DHT22;15473;50.840;3.396;2022-07-12T16:59:52;27.60;93.60
28193;DHT22;15473;50.840;3.396;2022-07-12T17:02:38;27.70;92.90
28193;DHT22;15473;50.840;3.396;2022-07-12T17:05:24;27.70;93.40
28193;DHT22;15473;50.840;3.396;2022-07-12T17:08:10;27.70;94.90
28193;DHT22;15473;50.840;3.396;2022-07-12T17:10:56;27.70;90.80
28193;DHT22;15473;50.840;3.396;2022-07-12T17:13:41;27.70;94.30
28193;DHT22;15473;50.840;3.396;2022-07-12T17:16:27;27.80;93.80
28193;DHT22;15473;50.840;3.396;2022-07-12T17:19:13;27.80;93.20
28193;DHT22;15473;50.840;3.396;2022-07-12T17:21:59;27.70;95.30
28193;DHT22;15473;50.840;3.396;2022-07-12T17:24:45;27.60;90.80
28193;DHT22;15473;50.840;3.396;2022-07-12T17:27:31;27.60;91.40
28193;DHT22;15473;50.840;3.396;2022-07-12T17:30:17;27.50;92.90
28193;DHT22;15473;50.840;3.396;2022-07-12T17:33:04;27.50;93.70
28193;DHT22;15473;50.840;3.396;2022-07-12T17:35:50;27.40;93.30
28193;DHT22;15473;50.840;3.396;2022-07-12T17:38:36;27.40;93.20
28193;DHT22;15473;50.840;3.396;2022-07-12T17:41:22;27.40;92.80
28193;DHT22;15473;50.840;3.396;2022-07-12T17:44:07;27.30;95.20
28193;DHT22;15473;50.840;3.396;2022-07-12T17:46:53;27.20;93.70
28193;DHT22;15473;50.840;3.396;2022-07-12T17:49:39;27.20;94.30
28193;DHT22;15473;50.840;3.396;2022-07-12T17:52:24;27.20;92.80
28193;DHT22;15473;50.840;3.396;2022-07-12T17:55:11;27.20;94.20